createdAt,value
2022-11-01T00:00:20.966Z,79.70
2022-11-01T00:03:47.706Z,75.15
2022-11-01T00:06:23.586Z,85.15
2022-11-01T00:08:56.409Z,76.55
2022-11-01T00:11:35.472Z,76.70
2022-11-01T00:14:17.188Z,79.90
2022-11-01T00:16:45.045Z,75.55
2022-11-01T00:19:13.355Z,72.90
2022-11-01T00:21:41.171Z,79.13
2022-11-01T00:24:09.184Z,83.97
2022-11-01T00:26:36.753Z,80.43
2022-11-01T00:29:04.783Z,87.38
2022-11-01T00:31:32.394Z,70.15
2022-11-01T00:34:03.825Z,61.40
2022-11-01T00:36:33.505Z,60.38
2022-11-01T00:39:01.335Z,62.60
2022-11-01T00:41:28.918Z,64.85
2022-11-01T00:43:56.632Z,61.08
2022-11-01T00:46:42.672Z,67.38
2022-11-01T00:49:10.384Z,61.63
2022-11-01T00:51:37.951Z,64.72
2022-11-01T00:54:05.776Z,56.60
2022-11-01T00:56:33.314Z,63.47
2022-11-01T00:59:00.974Z,59.22
2022-11-01T01:01:28.660Z,67.55
2022-11-01T01:03:56.497Z,63.15
2022-11-01T01:06:24.189Z,60.80
2022-11-01T01:08:52.123Z,72.93
2022-11-01T01:11:19.633Z,61.60
2022-11-01T01:13:47.312Z,83.22
2022-11-01T01:16:14.794Z,73.78
2022-11-01T01:18:42.498Z,56.53
2022-11-01T01:21:10.194Z,59.88
2022-11-01T01:23:38.063Z,69.70
2022-11-01T01:26:08.441Z,71.55
2022-11-01T01:28:41.769Z,92.53
2022-11-01T01:31:13.551Z,71.60
2022-11-01T01:33:41.555Z,65.68
2022-11-01T01:36:09.133Z,106.65
2022-11-01T01:38:37.116Z,58.85
2022-11-01T01:41:23.715Z,64.50
2022-11-01T01:43:51.591Z,59.00
2022-11-01T01:46:19.041Z,56.03
2022-11-01T01:48:51.035Z,59.83
2022-11-01T01:51:27.159Z,59.42
2022-11-01T01:53:58.430Z,59.70
2022-11-01T01:56:37.723Z,59.88
2022-11-01T01:59:10.932Z,62.58
2022-11-01T02:01:41.214Z,61.70
2022-11-01T02:04:33.680Z,54.83
2022-11-01T02:07:01.773Z,58.08
2022-11-01T02:09:31.723Z,63.97
2022-11-01T02:11:59.501Z,61.03
2022-11-01T02:14:27.624Z,60.35
2022-11-01T02:17:24.479Z,57.55
2022-11-01T02:20:13.599Z,49.30
2022-11-01T02:26:10.595Z,56.47
2022-11-01T02:29:10.543Z,57.70
2022-11-01T02:31:58.001Z,56.58
2022-11-01T02:34:42.484Z,52.63
2022-11-01T02:38:15.531Z,66.18
2022-11-01T02:41:32.793Z,57.63
2022-11-01T02:44:08.163Z,76.22
2022-11-01T02:47:02.004Z,103.00
2022-11-01T02:49:50.012Z,67.00
2022-11-01T02:52:25.108Z,55.10
2022-11-01T02:54:59.033Z,63.85
2022-11-01T02:57:41.235Z,52.85
2022-11-01T03:00:36.464Z,55.85
2022-11-01T03:03:14.175Z,49.55
2022-11-01T03:05:59.225Z,59.28
2022-11-01T03:08:51.924Z,53.35
2022-11-01T03:11:34.045Z,65.38
2022-11-01T03:14:23.444Z,52.83
2022-11-01T03:17:02.501Z,49.22
2022-11-01T03:19:35.846Z,53.70
2022-11-01T03:22:24.643Z,56.67
2022-11-01T03:24:59.755Z,54.07
2022-11-01T03:27:47.707Z,105.43
2022-11-01T03:30:16.258Z,68.55
2022-11-01T03:32:52.420Z,60.42
2022-11-01T03:35:34.692Z,49.60
2022-11-01T03:38:08.440Z,48.83
2022-11-01T03:40:41.305Z,55.03
2022-11-01T03:43:15.323Z,53.13
2022-11-01T03:45:44.024Z,48.38
2022-11-01T03:48:11.881Z,49.83
2022-11-01T03:50:40.288Z,50.30
2022-11-01T03:53:07.971Z,50.27
2022-11-01T03:55:35.481Z,51.10
2022-11-01T03:58:03.631Z,48.42
2022-11-01T04:00:36.138Z,43.22
2022-11-01T04:03:04.502Z,46.72
2022-11-01T04:05:33.909Z,41.72
2022-11-01T04:10:29.397Z,41.30
2022-11-01T04:12:58.317Z,40.85
2022-11-01T04:15:46.158Z,45.87
2022-11-01T04:18:37.628Z,45.03
2022-11-01T04:21:26.442Z,46.95
2022-11-01T04:23:54.160Z,45.28
2022-11-01T04:26:23.999Z,44.97
2022-11-01T04:28:57.980Z,41.80
2022-11-01T04:31:35.211Z,45.97
2022-11-01T04:34:05.496Z,45.05
2022-11-01T04:36:33.046Z,44.58
2022-11-01T04:39:00.829Z,43.35
2022-11-01T04:41:29.971Z,40.08
2022-11-01T04:46:29.767Z,43.13
2022-11-01T04:48:57.522Z,39.22
2022-11-01T04:51:25.062Z,52.20
2022-11-01T04:53:53.193Z,48.85
2022-11-01T04:56:20.664Z,41.90
2022-11-01T04:58:48.489Z,45.47
2022-11-01T05:01:16.076Z,46.78
2022-11-01T05:03:43.931Z,48.05
2022-11-01T05:06:11.516Z,44.65
2022-11-01T05:08:39.293Z,49.25
2022-11-01T05:11:06.909Z,46.30
2022-11-01T05:13:34.812Z,43.85
2022-11-01T05:16:18.930Z,45.53
2022-11-01T05:18:48.093Z,43.95
2022-11-01T05:21:15.658Z,42.10
2022-11-01T05:23:43.420Z,44.92
2022-11-01T05:26:10.991Z,44.83
2022-11-01T05:28:38.728Z,47.55
2022-11-01T05:31:06.414Z,40.80
2022-11-01T05:33:34.249Z,47.50
2022-11-01T05:36:02.068Z,64.13
2022-11-01T05:38:30.000Z,70.57
2022-11-01T05:40:57.461Z,66.18
2022-11-01T05:43:25.223Z,62.45
2022-11-01T05:45:52.761Z,61.80
2022-11-01T05:48:20.573Z,57.13
2022-11-01T05:50:48.114Z,56.08
2022-11-01T05:53:15.973Z,52.65
2022-11-01T05:55:43.434Z,50.08
2022-11-01T05:58:11.487Z,52.55
2022-11-01T06:00:39.100Z,57.20
2022-11-01T06:03:07.776Z,55.50
2022-11-01T06:05:38.078Z,52.90
2022-11-01T06:08:07.237Z,50.45
2022-11-01T06:10:35.127Z,53.47
2022-11-01T06:13:03.309Z,51.22
2022-11-01T06:15:34.254Z,52.38
2022-11-01T06:18:05.600Z,53.20
2022-11-01T06:20:34.126Z,50.13
2022-11-01T06:23:01.941Z,55.60
2022-11-01T06:25:29.379Z,50.85
2022-11-01T06:27:57.117Z,52.88
2022-11-01T06:30:25.066Z,57.60
2022-11-01T06:32:52.828Z,54.17
2022-11-01T06:35:20.328Z,52.40
2022-11-01T06:37:48.114Z,56.03
2022-11-01T06:40:15.688Z,57.33
2022-11-01T06:42:46.533Z,59.22
2022-11-01T06:45:14.794Z,54.97
2022-11-01T06:47:48.098Z,49.55
2022-11-01T06:50:16.090Z,55.22
2022-11-01T06:52:43.797Z,51.55
2022-11-01T06:55:12.171Z,51.88
2022-11-01T06:57:41.050Z,52.92
2022-11-01T07:00:09.991Z,57.15
2022-11-01T07:05:06.245Z,55.75
2022-11-01T07:07:33.946Z,54.75
2022-11-01T07:10:01.476Z,51.13
2022-11-01T07:12:29.133Z,57.95
2022-11-01T07:14:56.871Z,53.22
2022-11-01T07:17:24.619Z,60.75
2022-11-01T07:19:52.169Z,68.20
2022-11-01T07:22:19.889Z,68.47
2022-11-01T07:24:47.373Z,66.95
2022-11-01T07:27:20.213Z,73.18
2022-11-01T07:29:48.297Z,68.10
2022-11-01T07:32:16.030Z,100.28
2022-11-01T07:34:44.102Z,92.78
2022-11-01T07:37:11.907Z,116.18
2022-11-01T07:39:39.371Z,109.00
2022-11-01T07:42:07.085Z,115.82
2022-11-01T07:44:34.555Z,111.50
2022-11-01T07:47:02.317Z,113.38
2022-11-01T07:49:29.796Z,105.68
2022-11-01T07:52:01.806Z,112.68
2022-11-01T07:54:30.567Z,100.93
2022-11-01T07:56:58.323Z,111.88
2022-11-01T07:59:25.911Z,109.18
2022-11-01T08:01:53.693Z,113.90
2022-11-01T08:04:21.359Z,107.53
2022-11-01T08:06:52.109Z,108.38
2022-11-01T08:09:22.094Z,102.03
2022-11-01T08:11:50.017Z,100.75
2022-11-01T08:14:17.608Z,95.63
2022-11-01T08:16:50.723Z,99.60
2022-11-01T08:19:18.214Z,101.15
2022-11-01T08:21:45.969Z,101.05
2022-11-01T08:24:13.525Z,98.07
2022-11-01T08:26:41.299Z,106.68
2022-11-01T08:29:08.809Z,105.40
2022-11-01T08:31:41.283Z,97.35
2022-11-01T08:34:13.043Z,88.20
2022-11-01T08:36:44.604Z,94.22
2022-11-01T08:39:12.509Z,93.15
2022-11-01T08:41:40.275Z,93.63
2022-11-01T08:44:07.709Z,97.60
2022-11-01T08:46:35.470Z,87.43
2022-11-01T08:49:02.938Z,92.90
2022-11-01T08:51:34.653Z,86.13
2022-11-01T08:54:03.144Z,96.45
2022-11-01T08:56:36.746Z,94.72
2022-11-01T08:59:04.707Z,86.55
2022-11-01T09:01:32.988Z,89.57
2022-11-01T09:04:01.411Z,97.38
2022-11-01T09:06:36.498Z,103.53
2022-11-01T09:09:05.413Z,101.95
2022-11-01T09:11:33.376Z,117.22
2022-11-01T09:14:01.399Z,101.85
2022-11-01T09:16:29.777Z,123.18
2022-11-01T09:19:01.747Z,128.40
2022-11-01T09:21:31.955Z,130.90
2022-11-01T09:23:59.971Z,117.22
2022-11-01T09:26:27.862Z,105.82
2022-11-01T09:28:58.777Z,111.22
2022-11-01T09:31:26.734Z,100.40
2022-11-01T09:33:57.205Z,98.95
2022-11-01T09:36:29.963Z,89.65
2022-11-01T09:38:59.368Z,98.05
2022-11-01T09:41:47.410Z,99.45
2022-11-01T09:44:25.505Z,95.38
2022-11-01T09:47:01.338Z,96.60
2022-11-01T09:49:38.340Z,90.15
2022-11-01T09:52:07.449Z,101.70
2022-11-01T09:54:35.090Z,96.45
2022-11-01T09:57:26.676Z,102.97
2022-11-01T10:00:04.178Z,98.72
2022-11-01T10:02:46.195Z,100.70
2022-11-01T10:05:32.657Z,101.70
2022-11-01T10:08:21.389Z,114.68
2022-11-01T10:11:12.806Z,102.35
2022-11-01T10:13:57.369Z,101.00
2022-11-01T10:16:37.573Z,109.38
2022-11-01T10:19:18.250Z,107.18
2022-11-01T10:21:50.870Z,105.38
2022-11-01T10:24:37.106Z,106.53
2022-11-01T10:27:36.241Z,102.18
2022-11-01T10:30:17.653Z,99.10
2022-11-01T10:33:23.690Z,93.95
2022-11-01T10:36:02.504Z,108.88
2022-11-01T10:41:50.391Z,105.22
2022-11-01T10:44:27.949Z,99.68
2022-11-01T10:46:58.411Z,99.53
2022-11-01T10:52:33.866Z,104.85
2022-11-01T10:55:03.535Z,101.28
2022-11-01T10:57:49.451Z,101.82
2022-11-01T11:00:20.568Z,103.93
2022-11-01T11:02:58.666Z,112.70
2022-11-01T11:05:29.745Z,99.93
2022-11-01T11:07:58.178Z,92.80
2022-11-01T11:10:28.921Z,94.03
2022-11-01T11:13:06.753Z,102.85
2022-11-01T11:15:52.607Z,92.95
2022-11-01T11:18:39.615Z,106.03
2022-11-01T11:21:11.758Z,100.78
2022-11-01T11:23:47.018Z,98.25
2022-11-01T11:26:21.178Z,94.30
2022-11-01T11:28:56.333Z,95.15
2022-11-01T11:31:35.040Z,96.65
2022-11-01T11:34:30.922Z,86.97
2022-11-01T11:37:00.862Z,93.90
2022-11-01T11:39:33.058Z,91.32
2022-11-01T11:42:24.135Z,91.75
2022-11-01T11:45:16.092Z,95.95
2022-11-01T11:47:43.975Z,96.43
2022-11-01T11:50:21.042Z,88.70
2022-11-01T11:53:01.583Z,96.95
2022-11-01T11:55:45.350Z,89.53
2022-11-01T11:58:39.314Z,88.63
2022-11-01T12:01:12.155Z,89.70
2022-11-01T12:03:57.616Z,88.53
2022-11-01T12:06:30.212Z,105.57
2022-11-01T12:09:01.073Z,88.07
2022-11-01T12:11:46.382Z,88.25
2022-11-01T12:14:23.731Z,87.90
2022-11-01T12:16:51.988Z,82.55
2022-11-01T12:19:32.783Z,90.10
2022-11-01T12:22:03.128Z,80.65
2022-11-01T12:24:42.336Z,81.68
2022-11-01T12:27:18.534Z,91.82
2022-11-01T12:29:50.604Z,79.13
2022-11-01T12:32:47.720Z,86.28
2022-11-01T12:35:26.861Z,101.30
2022-11-01T12:38:23.677Z,97.60
2022-11-01T12:40:52.897Z,96.28
2022-11-01T12:43:45.254Z,86.47
2022-11-01T12:46:23.713Z,90.47
2022-11-01T12:49:13.276Z,91.28
2022-11-01T12:51:50.471Z,82.55
2022-11-01T12:54:30.482Z,90.82
2022-11-01T12:56:58.435Z,86.85
2022-11-01T12:59:35.831Z,90.13
2022-11-01T13:03:02.056Z,95.32
2022-11-01T13:06:03.248Z,89.05
2022-11-01T13:09:16.562Z,87.78
2022-11-01T13:12:16.596Z,88.45
2022-11-01T13:14:58.265Z,92.88
2022-11-01T13:17:47.444Z,95.85
2022-11-01T13:23:41.670Z,100.30
2022-11-01T13:26:34.051Z,87.85
2022-11-01T13:29:09.015Z,88.13
2022-11-01T13:32:29.801Z,94.57
2022-11-01T13:35:07.652Z,97.90
2022-11-01T13:37:50.985Z,104.30
2022-11-01T13:40:42.871Z,96.68
2022-11-01T13:43:36.880Z,94.57
2022-11-01T13:46:28.810Z,98.30
2022-11-01T13:49:17.183Z,102.97
2022-11-01T13:51:56.820Z,87.13
2022-11-01T13:54:45.841Z,91.72
2022-11-01T13:57:17.402Z,88.20
2022-11-01T14:00:01.199Z,82.22
2022-11-01T14:02:54.000Z,91.97
2022-11-01T14:05:21.955Z,87.53
2022-11-01T14:07:50.631Z,89.93
2022-11-01T14:10:18.054Z,90.95
2022-11-01T14:13:07.262Z,98.35
2022-11-01T14:15:59.491Z,98.63
2022-11-01T14:18:27.699Z,93.60
2022-11-01T14:20:57.263Z,93.67
2022-11-01T14:23:28.040Z,92.95
2022-11-01T14:26:20.673Z,93.40
2022-11-01T14:28:51.802Z,92.35
2022-11-01T14:31:24.410Z,85.15
2022-11-01T14:33:56.141Z,97.05
2022-11-01T14:36:34.154Z,94.05
2022-11-01T14:39:15.888Z,85.30
2022-11-01T14:41:44.998Z,86.03
2022-11-01T14:44:31.557Z,96.47
2022-11-01T14:47:03.226Z,100.38
2022-11-01T14:49:44.283Z,96.63
2022-11-01T14:52:34.535Z,93.30
2022-11-01T14:55:32.471Z,86.40
2022-11-01T14:58:23.913Z,85.85
2022-11-01T15:00:55.056Z,100.13
2022-11-01T15:03:23.629Z,108.07
2022-11-01T15:05:53.122Z,86.72
2022-11-01T15:11:03.282Z,92.15
2022-11-01T15:13:36.823Z,105.32
2022-11-01T15:16:14.896Z,87.68
2022-11-01T15:19:07.945Z,103.80
2022-11-01T15:21:46.974Z,96.63
2022-11-01T15:24:20.559Z,95.82
2022-11-01T15:26:48.987Z,102.30
2022-11-01T15:29:23.120Z,113.47
2022-11-01T15:32:02.932Z,94.15
2022-11-01T15:34:36.945Z,90.95
2022-11-01T15:37:21.390Z,95.35
2022-11-01T15:39:49.608Z,90.97
2022-11-01T15:42:33.992Z,83.47
2022-11-01T15:45:29.786Z,93.88
2022-11-01T15:48:24.124Z,83.80
2022-11-01T15:51:06.094Z,85.53
2022-11-01T15:54:14.444Z,79.63
2022-11-01T15:56:52.804Z,86.78
2022-11-01T15:59:36.854Z,79.50
2022-11-01T16:02:15.209Z,87.03
2022-11-01T16:04:46.591Z,82.85
2022-11-01T16:07:19.633Z,80.85
2022-11-01T16:09:51.927Z,83.63
2022-11-01T16:12:32.148Z,79.25
2022-11-01T16:15:06.606Z,77.78
2022-11-01T16:17:40.029Z,65.20
2022-11-01T16:20:29.674Z,78.57
2022-11-01T16:25:39.394Z,66.25
2022-11-01T16:28:10.064Z,65.90
2022-11-01T16:30:49.218Z,70.72
2022-11-01T16:33:36.566Z,94.07
2022-11-01T16:36:43.734Z,69.28
2022-11-01T16:39:31.362Z,64.68
2022-11-01T16:41:59.937Z,68.95
2022-11-01T16:44:27.577Z,70.82
2022-11-01T16:46:56.047Z,76.20
2022-11-01T16:49:29.640Z,47.25
2022-11-01T16:51:58.636Z,58.80
2022-11-01T16:54:27.086Z,53.15
2022-11-01T16:56:58.572Z,39.58
2022-11-01T16:59:38.340Z,38.42
2022-11-01T17:02:18.598Z,45.00
2022-11-01T17:04:50.585Z,44.55
2022-11-01T17:07:19.135Z,49.35
2022-11-01T17:09:46.849Z,44.67
2022-11-01T17:12:14.806Z,50.55
2022-11-01T17:14:43.113Z,56.20
2022-11-01T17:17:17.265Z,52.38
2022-11-01T17:19:50.608Z,57.55
2022-11-01T17:22:24.372Z,58.70
2022-11-01T17:24:52.068Z,53.90
2022-11-01T17:27:20.101Z,62.63
2022-11-01T17:29:47.868Z,61.42
2022-11-01T17:32:15.746Z,62.30
2022-11-01T17:34:43.437Z,63.80
2022-11-01T17:37:19.750Z,63.45
2022-11-01T17:39:47.364Z,60.70
2022-11-01T17:42:15.176Z,59.58
2022-11-01T17:45:02.669Z,61.45
2022-11-01T17:47:30.741Z,67.53
2022-11-01T17:49:58.574Z,59.53
2022-11-01T17:52:26.513Z,70.25
2022-11-01T17:54:53.975Z,78.20
2022-11-01T17:57:22.004Z,81.10
2022-11-01T17:59:49.643Z,88.85
2022-11-01T18:02:17.777Z,86.13
2022-11-01T18:04:45.442Z,88.60
2022-11-01T18:07:42.189Z,91.03
2022-11-01T18:10:53.782Z,89.55
2022-11-01T18:14:08.660Z,86.70
2022-11-01T18:16:45.228Z,73.93
2022-11-01T18:19:34.672Z,82.57
2022-11-01T18:25:27.031Z,73.75
2022-11-01T18:27:58.692Z,79.82
2022-11-01T18:30:27.268Z,82.43
2022-11-01T18:33:40.334Z,89.63
2022-11-01T18:36:18.807Z,87.88
2022-11-01T18:39:03.963Z,85.65
2022-11-01T18:41:31.834Z,99.47
2022-11-01T18:44:00.118Z,91.05
2022-11-01T18:46:43.199Z,84.25
2022-11-01T18:49:12.858Z,89.97
2022-11-01T18:51:40.836Z,90.65
2022-11-01T18:54:11.386Z,87.85
2022-11-01T18:56:43.592Z,101.60
2022-11-01T18:59:26.583Z,99.53
2022-11-01T19:02:11.099Z,90.63
2022-11-01T19:04:42.822Z,91.07
2022-11-01T19:07:23.035Z,91.03
2022-11-01T19:09:53.330Z,93.57
2022-11-01T19:12:30.336Z,83.20
2022-11-01T19:15:15.613Z,82.93
2022-11-01T19:17:45.647Z,78.45
2022-11-01T19:20:41.019Z,89.80
2022-11-01T19:23:24.641Z,90.13
2022-11-01T19:25:52.690Z,92.07
2022-11-01T19:28:38.455Z,89.80
2022-11-01T19:31:36.637Z,96.57
2022-11-01T19:34:21.014Z,88.63
2022-11-01T19:36:50.188Z,95.95
2022-11-01T19:39:37.209Z,96.00
2022-11-01T19:42:30.067Z,90.25
2022-11-01T19:45:10.484Z,83.30
2022-11-01T19:47:46.034Z,90.55
2022-11-01T19:50:24.224Z,94.45
2022-11-01T19:52:55.158Z,94.82
2022-11-01T19:55:47.884Z,88.57
2022-11-01T19:58:46.632Z,79.70
2022-11-01T20:01:19.952Z,80.60
2022-11-01T20:04:18.837Z,81.13
2022-11-01T20:07:02.150Z,75.57
2022-11-01T20:09:41.325Z,85.80
2022-11-01T20:12:11.240Z,81.93
2022-11-01T20:14:39.859Z,84.70
2022-11-01T20:17:07.794Z,88.75
2022-11-01T20:19:35.860Z,84.80
2022-11-01T20:22:04.372Z,78.00
2022-11-01T20:24:32.354Z,73.78
2022-11-01T20:27:00.936Z,76.68
2022-11-01T20:29:28.667Z,75.10
2022-11-01T20:31:56.445Z,71.63
2022-11-01T20:34:25.738Z,81.35
2022-11-01T20:37:14.889Z,77.93
2022-11-01T20:39:41.278Z,75.00
2022-11-01T20:42:09.505Z,75.28
2022-11-01T20:44:37.197Z,80.78
2022-11-01T20:47:04.932Z,70.40
2022-11-01T20:49:32.503Z,69.80
2022-11-01T20:52:13.345Z,77.60
2022-11-01T20:54:47.332Z,88.82
2022-11-01T20:57:27.192Z,86.47
2022-11-01T20:59:57.207Z,71.75
2022-11-01T21:05:06.243Z,100.10
2022-11-01T21:07:34.552Z,95.80
2022-11-01T21:10:02.159Z,90.30
2022-11-01T21:12:47.713Z,108.03
2022-11-01T21:15:36.907Z,101.13
2022-11-01T21:20:38.669Z,95.50
2022-11-01T21:23:21.508Z,105.30
2022-11-01T21:25:53.690Z,103.30
2022-11-01T21:29:16.340Z,137.45
2022-11-01T21:31:44.150Z,109.60
2022-11-01T21:34:13.396Z,123.72
2022-11-01T21:36:49.122Z,120.10
2022-11-01T21:39:33.045Z,95.90
2022-11-01T21:42:06.901Z,103.82
2022-11-01T21:44:45.480Z,103.18
2022-11-01T21:47:22.329Z,114.97
2022-11-01T21:49:51.374Z,105.35
2022-11-01T21:52:19.639Z,106.65
2022-11-01T21:54:48.211Z,109.45
2022-11-01T21:57:17.154Z,112.13
2022-11-01T22:02:15.018Z,120.88
2022-11-01T22:04:44.471Z,110.28
2022-11-01T22:07:12.387Z,105.68
2022-11-01T22:09:40.524Z,116.55
2022-11-01T22:12:08.972Z,103.68
2022-11-01T22:14:37.600Z,117.88
2022-11-01T22:17:16.935Z,107.50
2022-11-01T22:19:57.015Z,113.95
2022-11-01T22:22:40.789Z,112.25
2022-11-01T22:25:23.191Z,112.30
2022-11-01T22:27:54.606Z,117.63
2022-11-01T22:30:24.569Z,111.95
2022-11-01T22:33:26.999Z,110.88
2022-11-01T22:36:46.707Z,112.47
2022-11-01T22:39:27.485Z,119.05
2022-11-01T22:42:00.817Z,112.93
2022-11-01T22:44:33.605Z,112.50
2022-11-01T22:47:28.432Z,104.93
2022-11-01T22:50:34.798Z,100.63
2022-11-01T22:53:20.128Z,102.68
2022-11-01T22:55:53.954Z,109.53
2022-11-01T22:58:36.336Z,113.50
2022-11-01T23:01:26.039Z,111.53
2022-11-01T23:03:59.167Z,127.22
2022-11-01T23:06:35.220Z,100.15
2022-11-01T23:09:16.616Z,106.70
2022-11-01T23:12:10.149Z,97.68
2022-11-01T23:14:40.197Z,92.40
2022-11-01T23:17:19.269Z,99.45
2022-11-01T23:19:52.057Z,105.00
2022-11-01T23:22:24.132Z,88.35
2022-11-01T23:24:53.865Z,93.32
2022-11-01T23:27:24.409Z,98.13
2022-11-01T23:29:54.402Z,94.93
2022-11-01T23:32:22.089Z,100.50
2022-11-01T23:34:50.479Z,84.57
2022-11-01T23:37:22.481Z,89.95
2022-11-01T23:39:50.363Z,88.85
2022-11-01T23:42:25.653Z,89.30
2022-11-01T23:44:56.992Z,84.20
2022-11-01T23:47:39.845Z,80.75
2022-11-01T23:50:26.585Z,83.63
2022-11-01T23:52:59.196Z,81.03
2022-11-01T23:55:38.423Z,80.95
2022-11-01T23:58:24.528Z,75.65
